createdAt,value
2019-03-04T00:00:21.875Z,10.80
2019-03-04T00:02:48.871Z,10.90
2019-03-04T00:05:15.683Z,11.00
2019-03-04T00:07:42.479Z,11.10
2019-03-04T00:10:09.464Z,11.10
2019-03-04T00:12:36.377Z,11.20
2019-03-04T00:15:03.424Z,11.10
2019-03-04T00:17:30.310Z,11.00
2019-03-04T00:19:57.201Z,10.90
2019-03-04T00:22:23.973Z,10.70
2019-03-04T00:24:50.835Z,10.50
2019-03-04T00:27:17.612Z,10.20
2019-03-04T00:29:44.384Z,10.00
2019-03-04T00:32:11.240Z,9.70
2019-03-04T00:34:38.045Z,9.50
2019-03-04T00:37:05.041Z,9.30
2019-03-04T00:39:31.910Z,9.20
2019-03-04T00:41:58.689Z,9.10
2019-03-04T00:44:25.522Z,9.00
2019-03-04T00:46:52.485Z,9.00
2019-03-04T00:49:19.273Z,8.90
2019-03-04T00:51:46.053Z,8.90
2019-03-04T00:54:12.865Z,9.00
2019-03-04T00:56:39.762Z,9.00
2019-03-04T00:59:06.648Z,8.90
2019-03-04T01:01:33.505Z,8.90
2019-03-04T01:04:00.373Z,8.80
2019-03-04T01:06:27.357Z,8.70
2019-03-04T01:08:55.083Z,8.60
2019-03-04T01:11:21.877Z,8.50
2019-03-04T01:13:48.693Z,8.40
2019-03-04T01:16:15.698Z,8.30
2019-03-04T01:18:42.502Z,8.30
2019-03-04T01:21:09.282Z,8.30
2019-03-04T01:23:36.270Z,8.40
2019-03-04T01:26:03.251Z,8.40
2019-03-04T01:28:30.033Z,8.50
2019-03-04T01:30:56.915Z,8.70
2019-03-04T01:33:23.802Z,8.90
2019-03-04T01:35:50.784Z,8.90
2019-03-04T01:38:17.755Z,8.90
2019-03-04T01:40:44.640Z,8.90
2019-03-04T01:43:11.411Z,8.90
2019-03-04T01:45:38.401Z,8.90
2019-03-04T01:48:05.265Z,9.00
2019-03-04T01:50:32.045Z,9.00
2019-03-04T01:52:58.856Z,8.90
2019-03-04T01:55:25.732Z,9.00
2019-03-04T01:57:52.517Z,8.90
2019-03-04T02:00:19.704Z,9.00
2019-03-04T02:02:46.681Z,8.90
2019-03-04T02:05:13.987Z,8.90
2019-03-04T02:07:40.953Z,9.00
2019-03-04T02:10:13.053Z,9.10
2019-03-04T02:12:39.813Z,9.20
2019-03-04T02:15:08.069Z,9.30
2019-03-04T02:17:34.945Z,9.30
2019-03-04T02:20:01.939Z,9.30
2019-03-04T02:22:28.706Z,9.30
2019-03-04T02:24:55.490Z,9.30
2019-03-04T02:27:22.366Z,9.40
2019-03-04T02:29:49.257Z,9.50
2019-03-04T02:32:16.144Z,9.50
2019-03-04T02:34:42.990Z,9.40
2019-03-04T02:37:09.967Z,9.30
2019-03-04T02:39:36.849Z,9.30
2019-03-04T02:42:03.906Z,9.30
2019-03-04T02:44:30.839Z,9.30
2019-03-04T02:46:57.733Z,9.30
2019-03-04T02:49:24.617Z,9.20
2019-03-04T02:51:51.392Z,9.20
2019-03-04T02:54:18.162Z,9.20
2019-03-04T02:56:44.983Z,9.10
2019-03-04T02:59:11.857Z,9.00
2019-03-04T03:01:38.864Z,8.80
2019-03-04T03:04:05.828Z,8.70
2019-03-04T03:06:32.742Z,8.60
2019-03-04T03:08:59.599Z,8.50
2019-03-04T03:11:26.482Z,8.30
2019-03-04T03:13:53.342Z,8.20
2019-03-04T03:16:20.240Z,8.00
2019-03-04T03:18:47.106Z,7.80
2019-03-04T03:21:13.878Z,7.70
2019-03-04T03:23:40.642Z,7.50
2019-03-04T03:26:07.639Z,7.40
2019-03-04T03:28:34.598Z,7.60
2019-03-04T03:31:01.475Z,7.60
2019-03-04T03:33:28.240Z,7.60
2019-03-04T03:35:55.026Z,7.80
2019-03-04T03:38:22.430Z,7.80
2019-03-04T03:40:49.408Z,7.80
2019-03-04T03:43:16.372Z,8.00
2019-03-04T03:45:43.354Z,8.20
2019-03-04T03:48:10.130Z,8.30
2019-03-04T03:50:37.115Z,8.60
2019-03-04T03:53:04.082Z,8.70
2019-03-04T03:55:30.985Z,8.80
2019-03-04T03:57:57.875Z,8.80
2019-03-04T04:00:24.947Z,8.70
2019-03-04T04:02:52.011Z,8.60
2019-03-04T04:05:18.981Z,8.50
2019-03-04T04:07:45.957Z,8.30
2019-03-04T04:10:13.231Z,8.10
2019-03-04T04:12:40.209Z,8.00
2019-03-04T04:15:07.899Z,8.00
2019-03-04T04:17:34.673Z,7.90
2019-03-04T04:20:01.540Z,7.90
2019-03-04T04:22:28.519Z,7.80
2019-03-04T04:24:55.277Z,7.80
2019-03-04T04:27:22.057Z,7.80
2019-03-04T04:29:48.817Z,7.80
2019-03-04T04:32:15.598Z,7.80
2019-03-04T04:34:42.519Z,7.80
2019-03-04T04:37:09.293Z,7.80
2019-03-04T04:39:36.145Z,7.80
2019-03-04T04:42:03.034Z,7.80
2019-03-04T04:44:29.906Z,7.90
2019-03-04T04:46:58.182Z,7.90
2019-03-04T04:49:27.380Z,7.90
2019-03-04T04:51:54.253Z,7.90
2019-03-04T04:54:21.119Z,7.80
2019-03-04T04:56:47.989Z,7.90
2019-03-04T04:59:14.861Z,7.90
2019-03-04T05:01:41.633Z,8.00
2019-03-04T05:04:08.525Z,8.00
2019-03-04T05:06:35.296Z,8.00
2019-03-04T05:09:04.017Z,8.00
2019-03-04T05:11:30.921Z,7.90
2019-03-04T05:13:57.683Z,7.90
2019-03-04T05:16:24.455Z,7.90
2019-03-04T05:18:51.232Z,7.80
2019-03-04T05:21:18.119Z,7.80
2019-03-04T05:23:44.877Z,7.70
2019-03-04T05:26:11.736Z,7.60
2019-03-04T05:28:38.522Z,7.60
2019-03-04T05:31:05.393Z,7.60
2019-03-04T05:33:32.169Z,7.50
2019-03-04T05:35:59.027Z,7.40
2019-03-04T05:38:25.893Z,7.30
2019-03-04T05:40:52.851Z,7.10
2019-03-04T05:43:19.620Z,6.90
2019-03-04T05:45:46.480Z,6.90
2019-03-04T05:48:13.533Z,6.90
2019-03-04T05:50:40.393Z,7.00
2019-03-04T05:53:07.187Z,7.10
2019-03-04T05:55:34.050Z,7.40
2019-03-04T05:58:00.818Z,7.50
2019-03-04T06:00:28.577Z,7.70
2019-03-04T06:02:55.370Z,7.60
2019-03-04T06:05:22.108Z,7.60
2019-03-04T06:07:52.189Z,7.50
2019-03-04T06:10:19.050Z,7.40
2019-03-04T06:12:45.816Z,7.30
2019-03-04T06:15:14.413Z,7.20
2019-03-04T06:17:41.394Z,7.10
2019-03-04T06:20:09.437Z,7.20
2019-03-04T06:22:36.181Z,7.30
2019-03-04T06:25:07.411Z,7.20
2019-03-04T06:27:33.217Z,7.30
2019-03-04T06:29:59.965Z,7.30
2019-03-04T06:32:26.822Z,7.30
2019-03-04T06:34:53.687Z,7.20
2019-03-04T06:37:20.441Z,7.20
2019-03-04T06:39:47.205Z,7.20
2019-03-04T06:42:13.965Z,7.10
2019-03-04T06:44:40.859Z,7.10
2019-03-04T06:47:07.617Z,7.10
2019-03-04T06:49:34.393Z,7.10
2019-03-04T06:52:01.490Z,7.10
2019-03-04T06:55:22.509Z,7.20
2019-03-04T06:57:50.756Z,7.40
2019-03-04T07:00:32.045Z,7.50
2019-03-04T07:03:00.109Z,7.60
2019-03-04T07:05:44.179Z,7.70
2019-03-04T07:08:47.782Z,7.80
2019-03-04T07:11:14.764Z,8.80
2019-03-04T07:13:41.639Z,10.30
2019-03-04T07:16:08.605Z,11.40
2019-03-04T07:18:35.473Z,12.10
2019-03-04T07:21:02.460Z,12.30
2019-03-04T07:23:29.322Z,12.50
2019-03-04T07:25:56.298Z,12.80
2019-03-04T07:28:23.170Z,12.90
2019-03-04T07:30:50.054Z,13.00
2019-03-04T07:33:16.905Z,13.10
2019-03-04T07:35:43.684Z,13.20
2019-03-04T07:38:39.605Z,13.30
2019-03-04T07:41:06.394Z,13.20
2019-03-04T07:43:33.161Z,13.20
2019-03-04T07:46:00.036Z,13.20
2019-03-04T07:48:26.800Z,13.10
2019-03-04T07:50:53.585Z,13.00
2019-03-04T07:53:20.363Z,12.90
2019-03-04T07:55:47.348Z,12.70
2019-03-04T07:58:14.210Z,12.70
2019-03-04T08:00:41.190Z,12.60
2019-03-04T08:03:08.147Z,12.40
2019-03-04T08:05:36.923Z,12.10
2019-03-04T08:08:03.814Z,11.70
2019-03-04T08:10:56.956Z,11.10
2019-03-04T08:13:27.463Z,10.40
2019-03-04T08:15:55.956Z,9.70
2019-03-04T08:18:22.720Z,9.20
2019-03-04T08:20:49.698Z,8.90
2019-03-04T08:23:16.555Z,8.70
2019-03-04T08:25:43.565Z,8.70
2019-03-04T08:28:12.397Z,8.60
2019-03-04T08:30:39.491Z,8.60
2019-03-04T08:33:06.355Z,8.40
2019-03-04T08:35:33.237Z,8.30
2019-03-04T08:38:00.009Z,8.10
2019-03-04T08:40:26.984Z,8.00
2019-03-04T08:42:53.737Z,8.00
2019-03-04T08:45:20.515Z,8.00
2019-03-04T08:47:47.272Z,8.10
2019-03-04T08:50:14.394Z,8.20
2019-03-04T08:52:41.270Z,8.20
2019-03-04T08:55:09.512Z,8.30
2019-03-04T08:57:36.499Z,8.40
2019-03-04T09:00:04.858Z,8.50
2019-03-04T09:02:31.645Z,8.70
2019-03-04T09:04:58.400Z,8.80
2019-03-04T09:07:25.288Z,8.80
2019-03-04T09:09:52.186Z,8.90
2019-03-04T09:12:19.053Z,8.90
2019-03-04T09:14:45.814Z,8.70
2019-03-04T09:17:12.697Z,8.70
2019-03-04T09:19:39.562Z,8.60
2019-03-04T09:22:06.449Z,8.60
2019-03-04T09:24:33.337Z,8.60
2019-03-04T09:27:00.210Z,8.70
2019-03-04T09:29:27.079Z,8.80
2019-03-04T09:31:53.952Z,8.90
2019-03-04T09:34:20.743Z,9.10
2019-03-04T09:36:47.612Z,9.30
2019-03-04T09:39:15.272Z,9.50
2019-03-04T09:41:42.139Z,9.70
2019-03-04T09:44:08.997Z,9.80
2019-03-04T09:46:35.773Z,10.10
2019-03-04T09:49:02.654Z,10.30
2019-03-04T09:51:29.613Z,10.50
2019-03-04T09:53:56.509Z,10.60
2019-03-04T09:56:23.315Z,10.60
2019-03-04T09:58:50.222Z,10.50
2019-03-04T10:01:24.182Z,10.50
2019-03-04T10:04:27.379Z,10.40
2019-03-04T10:07:06.471Z,10.40
2019-03-04T10:10:16.920Z,10.30
2019-03-04T10:12:57.743Z,10.20
2019-03-04T10:15:54.981Z,10.00
2019-03-04T10:18:40.568Z,9.90
2019-03-04T10:21:55.653Z,9.90
2019-03-04T10:25:01.824Z,9.90
2019-03-04T10:27:45.758Z,9.90
2019-03-04T10:30:23.636Z,9.90
2019-03-04T10:33:39.858Z,9.90
2019-03-04T10:37:02.987Z,9.90
2019-03-04T10:39:50.350Z,9.90
2019-03-04T10:43:00.194Z,9.90
2019-03-04T10:45:57.272Z,9.80
2019-03-04T10:48:24.041Z,9.80
2019-03-04T10:50:51.005Z,9.70
2019-03-04T10:53:17.877Z,9.60
2019-03-04T10:55:44.644Z,9.60
2019-03-04T10:58:11.525Z,9.50
2019-03-04T11:00:38.906Z,9.50
2019-03-04T11:03:05.895Z,9.50
2019-03-04T11:05:32.657Z,9.40
2019-03-04T11:07:59.546Z,9.40
2019-03-04T11:10:26.632Z,9.40
2019-03-04T11:12:53.426Z,9.30
2019-03-04T11:15:22.203Z,9.40
2019-03-04T11:17:49.205Z,9.40
2019-03-04T11:20:16.189Z,9.40
2019-03-04T11:22:43.165Z,9.40
2019-03-04T11:25:10.578Z,9.50
2019-03-04T11:27:37.443Z,9.50
2019-03-04T11:30:04.692Z,9.50
2019-03-04T11:32:31.467Z,9.50
2019-03-04T11:34:58.246Z,9.50
2019-03-04T11:37:25.009Z,9.50
2019-03-04T11:40:04.395Z,9.60
2019-03-04T11:42:31.381Z,9.60
2019-03-04T11:44:58.470Z,9.60
2019-03-04T11:47:26.126Z,9.60
2019-03-04T11:49:53.498Z,9.60
2019-03-04T11:52:20.601Z,9.70
2019-03-04T11:54:47.385Z,9.70
2019-03-04T11:57:14.259Z,9.60
2019-03-04T11:59:41.239Z,9.60
2019-03-04T12:02:13.376Z,9.50
2019-03-04T12:04:40.254Z,9.50
2019-03-04T12:07:07.024Z,9.50
2019-03-04T12:09:33.890Z,9.40
2019-03-04T12:12:00.750Z,9.40
2019-03-04T12:14:27.638Z,9.40
2019-03-04T12:16:54.581Z,9.40
2019-03-04T12:19:21.553Z,9.40
2019-03-04T12:21:50.384Z,9.30
2019-03-04T12:24:17.264Z,9.30
2019-03-04T12:26:44.251Z,9.30
2019-03-04T12:29:11.275Z,9.20
2019-03-04T12:31:46.969Z,9.20
2019-03-04T12:34:24.647Z,9.30
2019-03-04T12:36:50.334Z,9.30
2019-03-04T12:39:17.222Z,9.50
2019-03-04T12:41:43.984Z,9.60
2019-03-04T12:44:10.758Z,9.70
2019-03-04T12:46:37.662Z,10.10
2019-03-04T12:49:04.534Z,10.30
2019-03-04T12:51:31.313Z,11.00
2019-03-04T12:53:58.193Z,12.40
2019-03-04T12:56:25.065Z,13.80
2019-03-04T12:58:51.937Z,14.40
2019-03-04T13:01:18.904Z,13.80
2019-03-04T13:03:45.971Z,13.70
2019-03-04T13:06:12.973Z,13.70
2019-03-04T13:08:39.911Z,14.00
2019-03-04T13:11:06.887Z,13.70
2019-03-04T13:13:33.749Z,13.10
2019-03-04T13:16:01.634Z,12.60
2019-03-04T13:18:28.597Z,12.80
2019-03-04T13:20:55.595Z,12.50
2019-03-04T13:23:22.588Z,13.00
2019-03-04T13:25:49.462Z,13.70
2019-03-04T13:28:16.361Z,14.40
2019-03-04T13:30:43.227Z,14.70
2019-03-04T13:33:10.206Z,14.90
2019-03-04T13:35:37.226Z,14.70
2019-03-04T13:38:04.250Z,14.60
2019-03-04T13:40:31.374Z,14.80
2019-03-04T13:42:58.366Z,14.80
2019-03-04T13:45:25.598Z,14.50
2019-03-04T13:47:52.481Z,14.40
2019-03-04T13:50:20.429Z,14.60
2019-03-04T13:52:47.418Z,14.60
2019-03-04T13:55:14.993Z,14.90
2019-03-04T13:57:41.982Z,15.20
2019-03-04T14:00:11.597Z,15.60
2019-03-04T14:02:38.581Z,15.50
2019-03-04T14:05:06.292Z,15.10
2019-03-04T14:07:33.172Z,15.50
2019-03-04T14:10:00.333Z,15.60
2019-03-04T14:12:27.337Z,15.90
2019-03-04T14:14:54.326Z,15.80
2019-03-04T14:17:21.210Z,15.60
2019-03-04T14:19:48.955Z,15.40
2019-03-04T14:22:16.088Z,15.20
2019-03-04T14:24:42.864Z,15.50
2019-03-04T14:27:09.771Z,15.00
2019-03-04T14:29:36.550Z,13.90
2019-03-04T14:32:03.456Z,13.60
2019-03-04T14:34:30.426Z,13.90
2019-03-04T14:36:57.317Z,13.80
2019-03-04T14:39:24.086Z,14.30
2019-03-04T14:41:50.997Z,14.60
2019-03-04T14:44:18.264Z,14.90
2019-03-04T14:46:45.269Z,14.80
2019-03-04T14:49:12.279Z,14.70
2019-03-04T14:51:39.331Z,14.40
2019-03-04T14:54:06.212Z,13.50
2019-03-04T14:56:33.113Z,13.50
2019-03-04T14:59:10.543Z,13.40
2019-03-04T15:01:28.827Z,13.80
2019-03-04T15:03:55.654Z,12.90
2019-03-04T15:06:22.722Z,12.00
2019-03-04T15:08:49.634Z,11.40
2019-03-04T15:11:16.518Z,11.00
2019-03-04T15:13:43.430Z,10.80
2019-03-04T15:16:10.435Z,10.70
2019-03-04T15:18:37.573Z,10.70
2019-03-04T15:21:05.545Z,10.70
2019-03-04T15:23:32.558Z,10.40
2019-03-04T15:25:59.481Z,10.10
2019-03-04T15:28:26.468Z,9.80
2019-03-04T15:30:55.413Z,9.70
2019-03-04T15:33:22.414Z,9.50
2019-03-04T15:35:49.465Z,9.30
2019-03-04T15:38:16.488Z,8.90
2019-03-04T15:40:43.454Z,8.30
2019-03-04T15:43:10.442Z,7.60
2019-03-04T15:45:39.748Z,7.00
2019-03-04T15:48:06.716Z,6.30
2019-03-04T15:50:33.598Z,5.90
2019-03-04T15:53:00.585Z,5.50
2019-03-04T15:55:27.572Z,5.40
2019-03-04T15:57:54.560Z,5.40
2019-03-04T16:00:21.449Z,5.50
2019-03-04T16:02:48.918Z,5.50
2019-03-04T16:05:16.213Z,5.50
2019-03-04T16:07:43.206Z,5.50
2019-03-04T16:10:11.022Z,5.50
2019-03-04T16:12:38.192Z,5.50
2019-03-04T16:15:07.269Z,5.50
2019-03-04T16:17:34.158Z,5.40
2019-03-04T16:20:01.027Z,5.40
2019-03-04T16:22:27.911Z,5.40
2019-03-04T16:24:54.772Z,5.40
2019-03-04T16:27:21.741Z,5.40
2019-03-04T16:29:48.646Z,5.30
2019-03-04T16:32:15.506Z,5.20
2019-03-04T16:34:42.293Z,5.20
2019-03-04T16:37:09.291Z,5.20
2019-03-04T16:39:36.170Z,5.10
2019-03-04T16:42:05.401Z,5.20
2019-03-04T16:44:32.278Z,5.20
2019-03-04T16:46:59.051Z,5.20
2019-03-04T16:49:25.821Z,5.30
2019-03-04T16:51:52.582Z,5.30
2019-03-04T16:54:19.350Z,5.30
2019-03-04T16:56:46.121Z,5.30
2019-03-04T16:59:13.006Z,5.30
2019-03-04T17:01:39.870Z,5.30
2019-03-04T17:04:06.746Z,5.30
2019-03-04T17:06:33.512Z,5.20
2019-03-04T17:09:00.479Z,5.20
2019-03-04T17:11:27.348Z,5.20
2019-03-04T17:13:54.226Z,5.20
2019-03-04T17:16:21.004Z,5.20
2019-03-04T17:18:47.972Z,5.20
2019-03-04T17:21:14.853Z,5.10
2019-03-04T17:23:41.810Z,5.10
2019-03-04T17:26:08.919Z,5.00
2019-03-04T17:28:35.797Z,4.90
2019-03-04T17:31:02.789Z,4.90
2019-03-04T17:33:29.688Z,4.90
2019-03-04T17:35:56.481Z,4.90
2019-03-04T17:38:23.366Z,4.90
2019-03-04T17:40:50.385Z,4.80
2019-03-04T17:43:17.254Z,4.80
2019-03-04T17:45:44.245Z,4.80
2019-03-04T17:48:11.134Z,4.70
2019-03-04T17:50:38.169Z,4.70
2019-03-04T17:53:06.229Z,4.70
2019-03-04T17:55:33.242Z,4.70
2019-03-04T17:58:00.161Z,4.70
2019-03-04T18:00:27.522Z,4.60
2019-03-04T18:02:54.517Z,4.50
2019-03-04T18:05:21.561Z,4.40
2019-03-04T18:07:48.589Z,4.30
2019-03-04T18:10:15.662Z,4.30
2019-03-04T18:12:42.688Z,4.30
2019-03-04T18:15:15.209Z,4.20
2019-03-04T18:17:42.197Z,4.20
2019-03-04T18:20:10.114Z,4.10
2019-03-04T18:22:37.114Z,4.00
2019-03-04T18:25:07.247Z,4.00
2019-03-04T18:27:46.340Z,4.00
2019-03-04T18:30:59.727Z,4.00
2019-03-04T18:33:45.917Z,4.00
2019-03-04T18:36:29.087Z,4.00
2019-03-04T18:39:19.322Z,4.00
2019-03-04T18:42:31.482Z,4.10
2019-03-04T18:45:39.350Z,4.10
2019-03-04T18:48:25.624Z,4.20
2019-03-04T18:50:52.417Z,4.20
2019-03-04T18:53:19.396Z,4.30
2019-03-04T18:55:46.393Z,4.40
2019-03-04T18:58:13.330Z,4.40
2019-03-04T19:00:40.621Z,4.50
2019-03-04T19:03:07.512Z,4.60
2019-03-04T19:05:34.608Z,4.60
2019-03-04T19:08:01.394Z,4.70
2019-03-04T19:10:28.294Z,4.70
2019-03-04T19:12:55.321Z,4.80
2019-03-04T19:15:22.581Z,4.80
2019-03-04T19:17:49.507Z,4.90
2019-03-04T19:20:16.517Z,5.00
2019-03-04T19:22:43.514Z,5.10
2019-03-04T19:25:10.712Z,5.20
2019-03-04T19:27:37.691Z,5.20
2019-03-04T19:30:05.429Z,5.10
2019-03-04T19:32:32.314Z,5.00
2019-03-04T19:34:59.285Z,5.00
2019-03-04T19:37:26.272Z,4.90
2019-03-04T19:39:53.255Z,4.80
2019-03-04T19:42:20.146Z,4.80
2019-03-04T19:44:47.139Z,4.80
2019-03-04T19:47:14.037Z,4.70
2019-03-04T19:49:41.023Z,4.60
2019-03-04T19:52:08.033Z,4.60
2019-03-04T19:54:34.908Z,4.50
2019-03-04T19:57:01.710Z,4.40
2019-03-04T19:59:28.685Z,4.30
2019-03-04T20:01:55.673Z,4.20
2019-03-04T20:04:22.571Z,4.20
2019-03-04T20:06:49.648Z,4.00
2019-03-04T20:09:16.629Z,4.00
2019-03-04T20:11:43.522Z,4.00
2019-03-04T20:14:10.898Z,3.90
2019-03-04T20:16:37.886Z,3.90
2019-03-04T20:19:04.877Z,3.80
2019-03-04T20:21:31.889Z,3.80
2019-03-04T20:23:58.890Z,3.70
2019-03-04T20:26:25.887Z,3.60
2019-03-04T20:28:52.859Z,3.60
2019-03-04T20:31:19.761Z,3.50
2019-03-04T20:33:46.741Z,3.40
2019-03-04T20:36:13.505Z,3.30
2019-03-04T20:38:43.443Z,3.30
2019-03-04T20:41:10.432Z,3.30
2019-03-04T20:43:37.420Z,3.20
2019-03-04T20:46:04.514Z,3.20
2019-03-04T20:48:31.392Z,3.20
2019-03-04T20:50:58.407Z,3.20
2019-03-04T20:53:25.326Z,3.10
2019-03-04T20:55:52.295Z,3.10
2019-03-04T20:58:19.184Z,3.10
2019-03-04T21:00:46.199Z,3.10
2019-03-04T21:03:13.201Z,3.10
2019-03-04T21:05:40.405Z,3.10
2019-03-04T21:08:07.306Z,3.10
2019-03-04T21:10:34.349Z,3.10
2019-03-04T21:13:06.251Z,3.10
2019-03-04T21:15:33.314Z,3.10
2019-03-04T21:18:00.214Z,3.10
2019-03-04T21:20:27.205Z,3.10
2019-03-04T21:22:54.197Z,3.10
2019-03-04T21:25:42.449Z,3.10
2019-03-04T21:28:13.581Z,3.20
2019-03-04T21:31:16.436Z,3.20
2019-03-04T21:34:28.159Z,3.20
2019-03-04T21:37:06.057Z,3.30
2019-03-04T21:39:34.167Z,3.30
2019-03-04T21:42:17.294Z,3.30
2019-03-04T21:45:22.301Z,3.30
2019-03-04T21:47:58.984Z,3.30
2019-03-04T21:50:36.895Z,3.40
2019-03-04T21:53:11.397Z,3.40
2019-03-04T21:56:28.420Z,3.40
2019-03-04T21:58:55.401Z,3.40
2019-03-04T22:01:26.606Z,3.50
2019-03-04T22:03:53.613Z,3.50
2019-03-04T22:06:20.594Z,3.50
2019-03-04T22:08:47.577Z,3.50
2019-03-04T22:11:14.494Z,3.60
2019-03-04T22:13:41.522Z,3.60
2019-03-04T22:16:08.400Z,3.60
2019-03-04T22:18:35.320Z,3.70
2019-03-04T22:21:02.329Z,3.70
2019-03-04T22:23:29.342Z,3.70
2019-03-04T22:26:02.009Z,3.80
2019-03-04T22:28:25.091Z,3.80
2019-03-04T22:30:52.045Z,3.90
2019-03-04T22:33:18.945Z,4.00
2019-03-04T22:35:45.933Z,4.00
2019-03-04T22:38:12.975Z,4.00
2019-03-04T22:40:39.980Z,4.00
2019-03-04T22:43:06.795Z,4.00
2019-03-04T22:45:33.675Z,3.90
2019-03-04T22:48:00.509Z,3.80
2019-03-04T22:50:27.481Z,3.80
2019-03-04T22:52:54.422Z,3.70
2019-03-04T22:55:27.250Z,3.60
2019-03-04T22:57:54.232Z,3.60
2019-03-04T23:01:22.410Z,3.60
2019-03-04T23:03:49.491Z,3.60
2019-03-04T23:06:19.841Z,3.60
2019-03-04T23:08:46.773Z,3.60
2019-03-04T23:11:13.671Z,3.50
2019-03-04T23:13:44.883Z,3.50
2019-03-04T23:16:15.097Z,3.50
2019-03-04T23:18:42.084Z,3.40
2019-03-04T23:21:09.007Z,3.50
2019-03-04T23:23:36.031Z,3.40
2019-03-04T23:26:03.005Z,3.30
2019-03-04T23:28:29.899Z,3.30
2019-03-04T23:30:56.684Z,3.30
2019-03-04T23:33:23.677Z,3.50
2019-03-04T23:35:50.563Z,3.50
2019-03-04T23:38:17.345Z,3.50
2019-03-04T23:40:44.218Z,3.60
2019-03-04T23:43:11.113Z,3.50
2019-03-04T23:45:38.225Z,3.50
2019-03-04T23:48:05.101Z,3.60
2019-03-04T23:50:32.113Z,3.60
2019-03-04T23:52:59.093Z,3.60
2019-03-04T23:55:26.055Z,3.60
2019-03-04T23:57:52.938Z,3.60
